createdAt,value
2017-08-05T00:00:02.905Z,2.92
2017-08-05T00:02:38.058Z,2.95
2017-08-05T00:05:13.205Z,3.90
2017-08-05T00:07:47.549Z,3.03
2017-08-05T00:10:22.045Z,3.67
2017-08-05T00:12:56.361Z,3.80
2017-08-05T00:15:30.756Z,3.08
2017-08-05T00:18:05.198Z,3.12
2017-08-05T00:20:39.688Z,4.12
2017-08-05T00:23:14.345Z,4.68
2017-08-05T00:25:48.839Z,4.37
2017-08-05T00:28:23.449Z,4.32
2017-08-05T00:30:58.634Z,5.50
2017-08-05T00:33:33.085Z,3.95
2017-08-05T00:36:07.431Z,5.05
2017-08-05T00:38:41.876Z,4.60
2017-08-05T00:41:16.378Z,4.43
2017-08-05T00:43:50.985Z,5.05
2017-08-05T00:46:25.469Z,5.10
2017-08-05T00:49:00.070Z,4.70
2017-08-05T00:51:34.573Z,4.53
2017-08-05T00:54:08.926Z,5.75
2017-08-05T00:56:43.324Z,4.37
2017-08-05T00:59:18.037Z,3.83
2017-08-05T01:01:52.450Z,4.55
2017-08-05T01:04:26.782Z,4.30
2017-08-05T01:07:01.841Z,4.70
2017-08-05T01:09:36.561Z,4.57
2017-08-05T01:12:10.925Z,4.10
2017-08-05T01:14:45.305Z,5.12
2017-08-05T01:17:19.617Z,4.70
2017-08-05T01:19:54.090Z,4.82
2017-08-05T01:22:28.347Z,5.00
2017-08-05T01:25:02.660Z,4.10
2017-08-05T01:27:37.107Z,4.82
2017-08-05T01:30:11.417Z,5.00
2017-08-05T01:32:45.914Z,6.00
2017-08-05T01:35:20.305Z,5.93
2017-08-05T01:37:54.749Z,6.22
2017-08-05T01:40:29.173Z,5.62
2017-08-05T01:43:04.250Z,5.55
2017-08-05T01:45:38.691Z,7.03
2017-08-05T01:48:13.175Z,5.85
2017-08-05T01:50:47.488Z,6.18
2017-08-05T01:53:21.978Z,7.00
2017-08-05T01:55:56.473Z,6.72
2017-08-05T01:58:30.995Z,6.57
2017-08-05T02:01:06.278Z,8.23
2017-08-05T02:03:41.156Z,6.75
2017-08-05T02:06:16.346Z,5.80
2017-08-05T02:08:51.069Z,7.60
2017-08-05T02:11:25.497Z,7.72
2017-08-05T02:13:59.854Z,7.40
2017-08-05T02:16:34.215Z,7.18
2017-08-05T02:19:08.539Z,6.93
2017-08-05T02:21:42.840Z,7.00
2017-08-05T02:24:17.217Z,5.25
2017-08-05T02:26:52.412Z,6.15
2017-08-05T02:29:26.725Z,6.95
2017-08-05T02:32:01.175Z,6.62
2017-08-05T02:34:35.561Z,6.47
2017-08-05T02:37:09.993Z,6.72
2017-08-05T02:39:44.582Z,7.20
2017-08-05T02:42:19.143Z,6.03
2017-08-05T02:44:53.514Z,6.07
2017-08-05T02:47:27.885Z,5.40
2017-08-05T02:50:02.267Z,5.70
2017-08-05T02:52:36.749Z,7.18
2017-08-05T02:55:11.165Z,7.30
2017-08-05T02:57:45.462Z,7.15
2017-08-05T03:00:19.929Z,6.55
2017-08-05T03:02:54.225Z,6.82
2017-08-05T03:05:28.517Z,5.82
2017-08-05T03:08:02.863Z,6.60
2017-08-05T03:10:38.043Z,6.62
2017-08-05T03:13:13.477Z,6.90
2017-08-05T03:15:47.809Z,7.82
2017-08-05T03:18:22.178Z,7.07
2017-08-05T03:20:57.361Z,5.12
2017-08-05T03:23:32.422Z,6.78
2017-08-05T03:26:06.789Z,5.50
2017-08-05T03:28:41.153Z,6.90
2017-08-05T03:31:15.461Z,7.03
2017-08-05T03:33:49.949Z,6.57
2017-08-05T03:36:24.405Z,7.70
2017-08-05T03:38:58.905Z,7.57
2017-08-05T03:41:33.991Z,6.60
2017-08-05T03:44:08.613Z,6.30
2017-08-05T03:46:43.010Z,6.93
2017-08-05T03:49:17.477Z,5.65
2017-08-05T03:51:51.841Z,6.90
2017-08-05T03:54:26.385Z,5.45
2017-08-05T03:57:00.745Z,5.60
2017-08-05T03:59:35.893Z,5.28
2017-08-05T04:02:11.036Z,6.85
2017-08-05T04:04:45.444Z,5.12
2017-08-05T04:07:19.748Z,5.82
2017-08-05T04:09:54.083Z,6.93
2017-08-05T04:12:28.574Z,6.03
2017-08-05T04:15:03.055Z,6.03
2017-08-05T04:17:37.399Z,6.05
2017-08-05T04:20:11.757Z,5.45
2017-08-05T04:22:46.922Z,5.32
2017-08-05T04:25:21.338Z,5.55
2017-08-05T04:27:55.748Z,5.90
2017-08-05T04:30:30.274Z,5.55
2017-08-05T04:33:05.557Z,6.50
2017-08-05T04:35:39.910Z,5.50
2017-08-05T04:38:14.214Z,7.03
2017-08-05T04:40:48.517Z,5.70
2017-08-05T04:43:23.069Z,5.10
2017-08-05T04:45:57.501Z,6.22
2017-08-05T04:48:31.999Z,5.55
2017-08-05T04:51:06.492Z,5.97
2017-08-05T04:53:41.009Z,5.68
2017-08-05T04:56:16.197Z,5.47
2017-08-05T04:58:51.546Z,5.85
2017-08-05T05:01:25.999Z,6.43
2017-08-05T05:04:00.536Z,6.90
2017-08-05T05:06:34.956Z,6.07
2017-08-05T05:09:09.600Z,5.82
2017-08-05T05:11:44.081Z,6.32
2017-08-05T05:14:18.585Z,6.50
2017-08-05T05:16:52.938Z,5.53
2017-08-05T05:19:27.469Z,6.35
2017-08-05T05:22:01.950Z,5.80
2017-08-05T05:24:36.398Z,5.05
2017-08-05T05:27:10.737Z,6.70
2017-08-05T05:29:45.104Z,5.45
2017-08-05T05:32:19.423Z,5.12
2017-08-05T05:34:53.845Z,4.95
2017-08-05T05:37:28.314Z,5.40
2017-08-05T05:40:02.646Z,4.22
2017-08-05T05:42:37.068Z,6.53
2017-08-05T05:45:11.494Z,5.82
2017-08-05T05:47:45.953Z,5.00
2017-08-05T05:50:21.224Z,5.78
2017-08-05T05:52:55.570Z,6.05
2017-08-05T05:55:30.809Z,6.20
2017-08-05T05:58:05.268Z,6.47
2017-08-05T06:00:39.569Z,5.70
2017-08-05T06:03:14.148Z,4.82
2017-08-05T06:05:48.616Z,5.05
2017-08-05T06:08:23.227Z,5.20
2017-08-05T06:10:57.545Z,5.35
2017-08-05T06:13:31.896Z,5.78
2017-08-05T06:16:06.369Z,5.15
2017-08-05T06:18:41.265Z,4.87
2017-08-05T06:21:15.575Z,5.30
2017-08-05T06:23:50.078Z,5.50
2017-08-05T06:26:24.356Z,5.68
2017-08-05T06:28:58.865Z,5.07
2017-08-05T06:31:33.401Z,4.60
2017-08-05T06:34:08.093Z,4.12
2017-08-05T06:36:42.424Z,6.20
2017-08-05T06:39:16.886Z,5.18
2017-08-05T06:41:51.304Z,3.70
2017-08-05T06:44:25.790Z,4.22
2017-08-05T06:47:00.101Z,5.25
2017-08-05T06:49:34.658Z,3.87
2017-08-05T06:52:09.773Z,3.80
2017-08-05T06:54:44.066Z,5.12
2017-08-05T06:57:18.529Z,5.03
2017-08-05T06:59:53.264Z,4.07
2017-08-05T07:02:28.369Z,4.05
2017-08-05T07:05:03.093Z,3.85
2017-08-05T07:07:37.434Z,3.62
2017-08-05T07:10:11.761Z,5.43
2017-08-05T07:12:46.061Z,5.18
2017-08-05T07:15:20.708Z,4.45
2017-08-05T07:17:55.085Z,3.95
2017-08-05T07:20:29.428Z,3.47
2017-08-05T07:23:04.450Z,4.30
2017-08-05T07:25:38.960Z,4.35
2017-08-05T07:28:13.421Z,4.22
2017-08-05T07:30:47.750Z,4.32
2017-08-05T07:33:22.172Z,3.30
2017-08-05T07:35:56.637Z,3.35
2017-08-05T07:38:31.091Z,3.90
2017-08-05T07:41:05.752Z,3.17
2017-08-05T07:43:40.217Z,3.22
2017-08-05T07:46:14.709Z,3.42
2017-08-05T07:48:49.097Z,3.67
2017-08-05T07:51:23.557Z,3.58
2017-08-05T07:53:57.917Z,3.25
2017-08-05T07:56:32.621Z,3.80
2017-08-05T07:59:07.141Z,3.47
2017-08-05T08:01:41.483Z,3.50
2017-08-05T08:04:15.784Z,3.80
2017-08-05T08:06:50.211Z,3.25
2017-08-05T08:09:24.612Z,3.15
2017-08-05T08:11:58.949Z,3.00
2017-08-05T08:14:33.389Z,3.45
2017-08-05T08:17:07.691Z,2.72
2017-08-05T08:19:42.019Z,3.35
2017-08-05T08:22:16.481Z,3.25
2017-08-05T08:24:50.983Z,3.70
2017-08-05T08:27:25.265Z,3.50
2017-08-05T08:29:59.805Z,3.22
2017-08-05T08:32:34.126Z,3.50
2017-08-05T08:35:08.492Z,3.10
2017-08-05T08:37:43.036Z,3.72
2017-08-05T08:40:18.289Z,3.17
2017-08-05T08:42:52.562Z,2.58
2017-08-05T08:45:27.017Z,3.00
2017-08-05T08:48:02.114Z,2.50
2017-08-05T08:50:36.448Z,3.00
2017-08-05T08:53:11.676Z,3.30
2017-08-05T08:55:46.168Z,3.83
2017-08-05T08:58:20.594Z,4.30
2017-08-05T09:00:55.088Z,3.25
2017-08-05T09:03:29.541Z,3.33
2017-08-05T09:06:04.193Z,3.30
2017-08-05T09:08:38.693Z,4.40
2017-08-05T09:11:13.049Z,4.50
2017-08-05T09:13:47.510Z,3.50
2017-08-05T09:16:22.140Z,3.92
2017-08-05T09:18:56.595Z,3.55
2017-08-05T09:21:31.212Z,4.00
2017-08-05T09:24:07.568Z,4.28
2017-08-05T09:26:42.844Z,3.60
2017-08-05T09:29:17.278Z,3.70
2017-08-05T09:31:52.385Z,4.87
2017-08-05T09:34:26.660Z,4.70
2017-08-05T09:37:01.052Z,3.20
2017-08-05T09:39:35.358Z,5.00
2017-08-05T09:42:09.927Z,5.30
2017-08-05T09:44:44.357Z,4.60
2017-08-05T09:47:18.705Z,4.78
2017-08-05T09:49:53.091Z,3.45
2017-08-05T09:52:27.445Z,4.10
2017-08-05T09:55:01.959Z,3.60
2017-08-05T09:57:36.520Z,4.07
2017-08-05T10:00:10.859Z,4.53
2017-08-05T10:02:45.160Z,3.65
2017-08-05T10:05:19.616Z,3.35
2017-08-05T10:07:53.937Z,5.28
2017-08-05T10:10:28.253Z,3.40
2017-08-05T10:13:02.577Z,3.17
2017-08-05T10:15:37.693Z,2.75
2017-08-05T10:18:12.205Z,2.75
2017-08-05T10:20:46.654Z,3.28
2017-08-05T10:23:21.873Z,3.15
2017-08-05T10:25:56.210Z,3.50
2017-08-05T10:28:30.677Z,2.70
2017-08-05T10:31:05.076Z,3.05
2017-08-05T10:33:39.439Z,2.83
2017-08-05T10:36:13.850Z,3.65
2017-08-05T10:38:48.440Z,3.43
2017-08-05T10:41:22.901Z,2.67
2017-08-05T10:43:57.265Z,3.50
2017-08-05T10:46:31.605Z,3.20
2017-08-05T10:49:05.972Z,3.00
2017-08-05T10:51:41.450Z,2.60
2017-08-05T10:54:16.551Z,2.00
2017-08-05T10:56:50.873Z,2.47
2017-08-05T10:59:25.284Z,2.70
2017-08-05T11:01:59.686Z,2.70
2017-08-05T11:04:34.146Z,3.13
2017-08-05T11:07:08.460Z,2.40
2017-08-05T11:09:42.845Z,2.83
2017-08-05T11:12:17.138Z,2.20
2017-08-05T11:14:51.508Z,2.23
2017-08-05T11:17:25.805Z,2.27
2017-08-05T11:20:00.292Z,2.27
2017-08-05T11:22:34.744Z,2.13
2017-08-05T11:25:09.194Z,2.70
2017-08-05T11:27:43.682Z,2.00
2017-08-05T11:30:18.044Z,2.53
2017-08-05T11:32:52.429Z,2.10
2017-08-05T11:35:26.893Z,2.40
2017-08-05T11:38:02.185Z,2.07
2017-08-05T11:40:37.357Z,2.30
2017-08-05T11:43:12.476Z,2.57
2017-08-05T11:45:46.930Z,1.90
2017-08-05T11:48:21.216Z,2.00
2017-08-05T11:50:55.567Z,1.73
2017-08-05T11:53:29.854Z,1.87
2017-08-05T11:56:04.317Z,2.17
2017-08-05T11:58:39.530Z,2.10
2017-08-05T12:01:14.215Z,2.47
2017-08-05T12:03:48.675Z,2.33
2017-08-05T12:06:23.378Z,2.40
2017-08-05T12:08:57.795Z,2.50
2017-08-05T12:11:32.301Z,2.70
2017-08-05T12:14:06.796Z,1.93
2017-08-05T12:16:42.142Z,2.70
2017-08-05T12:19:16.420Z,2.30
2017-08-05T12:21:50.804Z,2.27
2017-08-05T12:24:25.269Z,2.47
2017-08-05T12:26:59.790Z,2.50
2017-08-05T12:29:34.081Z,2.43
2017-08-05T12:32:08.506Z,2.60
2017-08-05T12:34:42.922Z,2.30
2017-08-05T12:37:17.314Z,2.13
2017-08-05T12:39:51.823Z,2.60
2017-08-05T12:42:26.169Z,1.90
2017-08-05T12:45:00.553Z,3.50
2017-08-05T12:47:34.989Z,1.87
2017-08-05T12:50:09.329Z,3.17
2017-08-05T12:52:43.633Z,2.53
2017-08-05T12:55:18.087Z,2.60
2017-08-05T12:57:52.498Z,3.40
2017-08-05T13:00:26.789Z,1.90
2017-08-05T13:03:01.301Z,2.40
2017-08-05T13:05:35.891Z,2.47
2017-08-05T13:08:10.347Z,2.37
2017-08-05T13:10:44.847Z,2.23
2017-08-05T13:13:19.901Z,2.73
2017-08-05T13:15:54.263Z,2.60
2017-08-05T13:18:28.731Z,2.63
2017-08-05T13:21:03.050Z,2.03
2017-08-05T13:23:37.464Z,2.30
2017-08-05T13:26:11.937Z,2.67
2017-08-05T13:28:46.421Z,2.27
2017-08-05T13:31:20.881Z,3.73
2017-08-05T13:33:55.221Z,2.07
2017-08-05T13:36:29.640Z,2.53
2017-08-05T13:39:03.998Z,2.67
2017-08-05T13:41:39.256Z,2.30
2017-08-05T13:44:13.524Z,2.40
2017-08-05T13:46:47.813Z,2.50
2017-08-05T13:49:22.093Z,2.40
2017-08-05T13:51:56.837Z,1.97
2017-08-05T13:54:31.253Z,3.30
2017-08-05T13:57:05.893Z,2.47
2017-08-05T13:59:40.279Z,2.20
2017-08-05T14:02:14.639Z,2.60
2017-08-05T14:04:49.116Z,2.67
2017-08-05T14:07:23.576Z,2.33
2017-08-05T14:09:57.993Z,2.23
2017-08-05T14:12:33.257Z,2.90
2017-08-05T14:15:07.712Z,2.80
2017-08-05T14:17:42.045Z,2.63
2017-08-05T14:20:16.521Z,2.50
2017-08-05T14:22:50.948Z,2.43
2017-08-05T14:25:25.278Z,2.40
2017-08-05T14:27:59.764Z,1.80
2017-08-05T14:30:34.107Z,2.70
2017-08-05T14:33:08.593Z,2.50
2017-08-05T14:35:43.082Z,1.63
2017-08-05T14:38:18.345Z,2.57
2017-08-05T14:40:52.676Z,2.53
2017-08-05T14:43:27.344Z,2.80
2017-08-05T14:46:01.898Z,2.33
2017-08-05T14:48:36.289Z,2.73
2017-08-05T14:51:10.661Z,1.73
2017-08-05T14:53:45.466Z,2.93
2017-08-05T14:56:19.898Z,2.67
2017-08-05T14:58:54.180Z,3.03
2017-08-05T15:01:28.534Z,2.70
2017-08-05T15:04:02.958Z,2.97
2017-08-05T15:06:37.497Z,2.40
2017-08-05T15:09:11.920Z,2.70
2017-08-05T15:11:46.261Z,2.50
2017-08-05T15:14:21.025Z,2.00
2017-08-05T15:16:55.400Z,2.57
2017-08-05T15:19:29.756Z,2.37
2017-08-05T15:22:04.149Z,2.40
2017-08-05T15:24:38.645Z,3.03
2017-08-05T15:27:13.038Z,2.80
2017-08-05T15:29:47.338Z,2.40
2017-08-05T15:32:22.433Z,2.70
2017-08-05T15:34:56.868Z,3.07
2017-08-05T15:37:31.169Z,2.60
2017-08-05T15:40:06.048Z,2.20
2017-08-05T15:42:40.358Z,2.57
2017-08-05T15:45:14.766Z,2.70
2017-08-05T15:47:50.300Z,3.10
2017-08-05T15:50:24.761Z,3.23
2017-08-05T15:52:59.837Z,3.40
2017-08-05T15:55:34.202Z,4.47
2017-08-05T15:58:08.567Z,4.83
2017-08-05T16:00:42.908Z,2.93
2017-08-05T16:03:17.312Z,8.90
2017-08-05T16:05:51.823Z,6.00
2017-08-05T16:08:26.288Z,4.50
2017-08-05T16:11:00.788Z,3.17
2017-08-05T16:13:35.408Z,2.83
2017-08-05T16:16:10.573Z,4.23
2017-08-05T16:18:45.154Z,3.70
2017-08-05T16:21:19.688Z,3.60
2017-08-05T16:23:54.345Z,2.40
2017-08-05T16:26:28.772Z,3.70
2017-08-05T16:29:03.141Z,7.10
2017-08-05T16:31:37.582Z,3.03
2017-08-05T16:34:11.920Z,3.30
2017-08-05T16:36:46.277Z,2.87
2017-08-05T16:39:20.856Z,2.90
2017-08-05T16:41:55.304Z,2.77
2017-08-05T16:44:29.797Z,2.67
2017-08-05T16:47:04.349Z,7.82
2017-08-05T16:49:38.642Z,5.93
2017-08-05T16:52:13.069Z,3.03
2017-08-05T16:54:47.380Z,2.92
2017-08-05T16:57:21.817Z,2.25
2017-08-05T16:59:57.053Z,1.50
2017-08-05T17:02:31.365Z,2.58
2017-08-05T17:05:05.798Z,2.72
2017-08-05T17:07:40.209Z,3.20
2017-08-05T17:10:14.516Z,2.05
2017-08-05T17:12:48.863Z,2.28
2017-08-05T17:15:23.361Z,4.62
2017-08-05T17:17:57.837Z,2.42
2017-08-05T17:20:32.129Z,2.25
2017-08-05T17:23:07.167Z,6.22
2017-08-05T17:25:41.561Z,2.10
2017-08-05T17:28:15.880Z,3.30
2017-08-05T17:30:50.377Z,2.35
2017-08-05T17:33:24.781Z,2.22
2017-08-05T17:36:00.217Z,4.30
2017-08-05T17:38:34.637Z,6.05
2017-08-05T17:41:08.962Z,4.40
2017-08-05T17:43:43.268Z,3.28
2017-08-05T17:46:18.370Z,1.70
2017-08-05T17:48:52.732Z,2.87
2017-08-05T17:51:27.005Z,4.05
2017-08-05T17:54:01.323Z,3.95
2017-08-05T17:56:35.641Z,2.42
2017-08-05T17:59:09.997Z,3.20
2017-08-05T18:01:44.447Z,3.70
2017-08-05T18:04:19.025Z,4.30
2017-08-05T18:06:53.315Z,2.47
2017-08-05T18:09:28.642Z,3.20
2017-08-05T18:12:03.121Z,2.08
2017-08-05T18:14:37.794Z,2.85
2017-08-05T18:17:12.247Z,2.95
2017-08-05T18:19:46.557Z,3.00
2017-08-05T18:22:21.143Z,2.70
2017-08-05T18:24:55.509Z,2.70
2017-08-05T18:27:29.929Z,2.45
2017-08-05T18:30:04.198Z,2.20
2017-08-05T18:32:38.564Z,3.35
2017-08-05T18:35:12.866Z,2.25
2017-08-05T18:37:48.250Z,2.65
2017-08-05T18:40:22.532Z,2.30
2017-08-05T18:42:57.101Z,2.15
2017-08-05T18:45:31.543Z,1.90
2017-08-05T18:48:05.867Z,2.37
2017-08-05T18:50:40.312Z,1.83
2017-08-05T18:53:14.763Z,3.53
2017-08-05T18:55:49.062Z,2.60
2017-08-05T18:58:23.652Z,2.78
2017-08-05T19:00:58.138Z,2.08
2017-08-05T19:03:33.307Z,2.12
2017-08-05T19:06:07.574Z,2.47
2017-08-05T19:08:42.029Z,2.22
2017-08-05T19:11:16.349Z,2.12
2017-08-05T19:13:50.836Z,2.60
2017-08-05T19:16:25.317Z,2.70
2017-08-05T19:18:59.737Z,2.75
2017-08-05T19:21:34.041Z,2.85
2017-08-05T19:24:08.424Z,2.60
2017-08-05T19:26:42.855Z,3.20
2017-08-05T19:29:17.313Z,2.72
2017-08-05T19:31:51.808Z,2.78
2017-08-05T19:34:26.250Z,2.90
2017-08-05T19:37:00.971Z,2.30
2017-08-05T19:39:35.278Z,2.65
2017-08-05T19:42:09.620Z,2.75
2017-08-05T19:44:44.122Z,2.92
2017-08-05T19:47:18.606Z,2.87
2017-08-05T19:49:52.937Z,2.90
2017-08-05T19:52:27.394Z,2.70
2017-08-05T19:55:01.709Z,3.22
2017-08-05T19:57:36.357Z,3.00
2017-08-05T20:00:10.776Z,2.83
2017-08-05T20:02:45.095Z,3.17
2017-08-05T20:05:19.464Z,3.10
2017-08-05T20:07:53.934Z,2.60
2017-08-05T20:10:28.429Z,2.22
2017-08-05T20:13:02.894Z,2.67
2017-08-05T20:15:37.417Z,2.33
2017-08-05T20:18:11.718Z,2.70
2017-08-05T20:20:46.845Z,2.80
2017-08-05T20:23:21.121Z,2.62
2017-08-05T20:25:55.610Z,2.92
2017-08-05T20:28:29.909Z,2.67
2017-08-05T20:31:05.146Z,2.47
2017-08-05T20:33:39.417Z,2.87
2017-08-05T20:36:13.737Z,3.30
2017-08-05T20:38:48.014Z,3.42
2017-08-05T20:41:22.345Z,3.20
2017-08-05T20:43:56.676Z,3.62
2017-08-05T20:46:31.196Z,3.12
2017-08-05T20:49:05.527Z,5.25
2017-08-05T20:51:40.581Z,6.75
2017-08-05T20:54:14.848Z,5.35
2017-08-05T20:56:49.173Z,5.50
2017-08-05T20:59:23.609Z,3.60
2017-08-05T21:01:57.908Z,3.00
2017-08-05T21:04:32.345Z,2.95
2017-08-05T21:07:06.843Z,2.80
2017-08-05T21:09:41.277Z,3.47
2017-08-05T21:12:15.793Z,2.62
2017-08-05T21:14:50.234Z,2.65
2017-08-05T21:17:24.706Z,3.03
2017-08-05T21:19:59.146Z,2.83
2017-08-05T21:22:33.601Z,3.45
2017-08-05T21:25:07.928Z,3.05
2017-08-05T21:27:42.229Z,2.50
2017-08-05T21:30:16.695Z,3.08
2017-08-05T21:32:51.159Z,2.80
2017-08-05T21:35:25.684Z,2.60
2017-08-05T21:38:00.014Z,2.62
2017-08-05T21:40:34.371Z,2.92
2017-08-05T21:43:08.997Z,2.90
2017-08-05T21:45:43.479Z,3.65
2017-08-05T21:48:17.826Z,2.47
2017-08-05T21:50:52.133Z,2.80
2017-08-05T21:53:26.571Z,3.75
2017-08-05T21:56:01.018Z,2.95
2017-08-05T21:58:35.374Z,3.00
2017-08-05T22:01:09.778Z,2.87
2017-08-05T22:03:44.254Z,2.97
2017-08-05T22:06:18.725Z,2.75
2017-08-05T22:08:53.252Z,3.17
2017-08-05T22:11:27.689Z,2.97
2017-08-05T22:14:02.117Z,3.55
2017-08-05T22:16:36.432Z,5.10
2017-08-05T22:19:10.892Z,3.35
2017-08-05T22:21:45.165Z,2.70
2017-08-05T22:24:19.705Z,2.50
2017-08-05T22:26:54.179Z,2.58
2017-08-05T22:29:28.524Z,2.22
2017-08-05T22:32:03.000Z,2.70
2017-08-05T22:34:37.641Z,3.28
2017-08-05T22:37:11.943Z,3.10
2017-08-05T22:39:46.389Z,2.70
2017-08-05T22:42:21.613Z,3.40
2017-08-05T22:44:55.931Z,2.85
2017-08-05T22:47:30.259Z,3.05
2017-08-05T22:50:04.706Z,2.60
2017-08-05T22:52:39.101Z,3.10
2017-08-05T22:55:13.632Z,3.65
2017-08-05T22:57:48.042Z,4.22
2017-08-05T23:00:23.382Z,3.05
2017-08-05T23:02:57.701Z,4.55
2017-08-05T23:05:32.045Z,2.87
2017-08-05T23:08:06.458Z,4.47
2017-08-05T23:10:40.944Z,2.85
2017-08-05T23:13:15.266Z,3.50
2017-08-05T23:15:49.747Z,2.90
2017-08-05T23:18:24.045Z,3.05
2017-08-05T23:20:58.517Z,2.60
2017-08-05T23:23:32.929Z,2.70
2017-08-05T23:26:07.437Z,3.40
2017-08-05T23:28:42.015Z,3.30
2017-08-05T23:31:17.324Z,2.40
2017-08-05T23:33:51.744Z,3.33
2017-08-05T23:36:26.136Z,3.10
2017-08-05T23:39:00.557Z,3.22
2017-08-05T23:41:34.989Z,4.55
2017-08-05T23:44:09.371Z,3.67
2017-08-05T23:46:43.737Z,3.80
2017-08-05T23:49:18.174Z,4.10
2017-08-05T23:51:52.617Z,3.75
2017-08-05T23:54:26.892Z,4.00
2017-08-05T23:57:01.178Z,3.80
2017-08-05T23:59:35.624Z,3.85
